createdAt,value
2023-01-13T00:01:34.031Z,103557.28
2023-01-13T00:04:01.619Z,103550.44
2023-01-13T00:06:29.755Z,103557.50
2023-01-13T00:08:58.103Z,103559.78
2023-01-13T00:11:26.594Z,103556.63
2023-01-13T00:13:55.240Z,103553.19
2023-01-13T00:16:22.615Z,103551.66
2023-01-13T00:21:36.075Z,103556.19
2023-01-13T00:24:03.489Z,103536.19
2023-01-13T00:26:33.967Z,103552.06
2023-01-13T00:29:03.653Z,103542.97
2023-01-13T00:31:31.171Z,103533.41
2023-01-13T00:34:00.410Z,103536.63
2023-01-13T00:36:28.919Z,103528.31
2023-01-13T00:38:56.267Z,103529.25
2023-01-13T00:41:25.523Z,103536.19
2023-01-13T00:43:53.267Z,103526.34
2023-01-13T00:46:22.204Z,103533.06
2023-01-13T00:48:50.118Z,103521.59
2023-01-13T00:51:19.927Z,103527.75
2023-01-13T00:53:50.217Z,103530.22
2023-01-13T00:56:34.039Z,103518.91
2023-01-13T00:59:06.010Z,103521.97
2023-01-13T01:01:33.757Z,103514.75
2023-01-13T01:04:01.399Z,103520.72
2023-01-13T01:06:28.968Z,103507.50
2023-01-13T01:08:56.969Z,103516.69
2023-01-13T01:11:28.130Z,103514.91
2023-01-13T01:13:57.278Z,103513.25
2023-01-13T01:16:26.703Z,103515.78
2023-01-13T01:18:55.100Z,103506.63
2023-01-13T01:21:24.821Z,103512.00
2023-01-13T01:23:53.243Z,103507.63
2023-01-13T01:26:25.596Z,103503.63
2023-01-13T01:28:54.204Z,103503.69
2023-01-13T01:31:27.224Z,103500.44
2023-01-13T01:33:55.455Z,103509.63
2023-01-13T01:36:24.427Z,103517.06
2023-01-13T01:38:51.905Z,103502.69
2023-01-13T01:41:25.588Z,103502.19
2023-01-13T01:44:03.059Z,103494.97
2023-01-13T01:46:41.848Z,103492.84
2023-01-13T01:49:13.339Z,103505.44
2023-01-13T01:51:47.704Z,103507.31
2023-01-13T01:54:22.366Z,103494.66
2023-01-13T01:56:50.726Z,103494.75
2023-01-13T01:59:18.504Z,103486.34
2023-01-13T02:01:46.345Z,103490.03
2023-01-13T02:04:20.870Z,103486.44
2023-01-13T02:06:50.417Z,103486.63
2023-01-13T02:09:18.013Z,103484.63
2023-01-13T02:12:04.041Z,103482.03
2023-01-13T02:14:33.776Z,103475.53
2023-01-13T02:17:21.066Z,103477.75
2023-01-13T02:19:54.587Z,103471.78
2023-01-13T02:22:58.400Z,103471.44
2023-01-13T02:25:47.812Z,103476.97
2023-01-13T02:29:03.958Z,103473.56
2023-01-13T02:31:44.817Z,103470.59
2023-01-13T02:34:15.367Z,103471.94
2023-01-13T02:36:55.762Z,103458.13
2023-01-13T02:39:33.594Z,103465.03
2023-01-13T02:42:34.573Z,103468.66
2023-01-13T02:45:18.202Z,103470.41
2023-01-13T02:47:50.444Z,103466.13
2023-01-13T02:50:30.913Z,103473.28
2023-01-13T02:53:08.902Z,103467.09
2023-01-13T02:55:47.064Z,103459.97
2023-01-13T02:58:19.306Z,103469.41
2023-01-13T03:00:49.028Z,103468.41
2023-01-13T03:03:16.785Z,103450.66
2023-01-13T03:05:46.836Z,103448.59
2023-01-13T03:08:34.053Z,103461.44
2023-01-13T03:11:08.935Z,103461.63
2023-01-13T03:14:08.861Z,103453.38
2023-01-13T03:17:43.938Z,103455.22
2023-01-13T03:20:29.310Z,103453.84
2023-01-13T03:23:22.806Z,103454.00
2023-01-13T03:25:59.574Z,103449.16
2023-01-13T03:28:37.240Z,103450.09
2023-01-13T03:31:10.506Z,103450.13
2023-01-13T03:33:55.237Z,103445.31
2023-01-13T03:36:26.510Z,103454.22
2023-01-13T03:39:17.891Z,103452.34
2023-01-13T03:41:53.662Z,103447.84
2023-01-13T03:44:31.356Z,103460.97
2023-01-13T03:47:18.639Z,103452.97
2023-01-13T03:49:49.101Z,103475.22
2023-01-13T03:52:26.091Z,103464.66
2023-01-13T03:58:24.901Z,103470.91
2023-01-13T04:04:38.862Z,103470.72
2023-01-13T04:07:33.431Z,103466.41
2023-01-13T04:10:05.406Z,103471.56
2023-01-13T04:13:03.943Z,103468.13
2023-01-13T04:15:35.423Z,103468.75
2023-01-13T04:18:11.846Z,103467.63
2023-01-13T04:21:07.309Z,103464.59
2023-01-13T04:23:35.613Z,103470.31
2023-01-13T04:28:48.556Z,103451.56
2023-01-13T04:31:16.143Z,103470.56
2023-01-13T04:33:43.995Z,103460.59
2023-01-13T04:36:11.392Z,103463.78
2023-01-13T04:38:38.989Z,103460.56
2023-01-13T04:41:06.675Z,103464.09
2023-01-13T04:43:34.279Z,103472.69
2023-01-13T04:46:04.886Z,103465.44
2023-01-13T04:48:32.848Z,103474.84
2023-01-13T04:51:02.032Z,103463.31
2023-01-13T04:53:29.729Z,103469.16
2023-01-13T04:55:58.353Z,103471.63
2023-01-13T04:58:26.562Z,103470.88
2023-01-13T05:00:55.639Z,103484.09
2023-01-13T05:03:24.883Z,103479.13
2023-01-13T05:05:54.286Z,103492.22
2023-01-13T05:08:21.900Z,103474.53
2023-01-13T05:10:50.260Z,103472.50
2023-01-13T05:13:38.214Z,103480.91
2023-01-13T05:16:25.110Z,103474.31
2023-01-13T05:18:52.907Z,103482.41
2023-01-13T05:21:39.604Z,103481.41
2023-01-13T05:24:27.990Z,103480.50
2023-01-13T05:26:56.425Z,103485.94
2023-01-13T05:29:24.639Z,103483.53
2023-01-13T05:31:53.312Z,103481.09
2023-01-13T05:34:21.352Z,103478.91
2023-01-13T05:36:49.254Z,103482.84
2023-01-13T05:42:19.337Z,103482.06
2023-01-13T05:44:48.435Z,103490.03
2023-01-13T05:47:16.677Z,103482.59
2023-01-13T05:49:46.917Z,103484.88
2023-01-13T05:52:16.613Z,103484.88
2023-01-13T05:54:44.544Z,103487.53
2023-01-13T05:57:12.588Z,103502.84
2023-01-13T05:59:40.282Z,103469.50
2023-01-13T06:02:08.032Z,103491.00
2023-01-13T06:04:37.196Z,103494.25
2023-01-13T06:07:06.740Z,103494.91
2023-01-13T06:09:34.485Z,103489.19
2023-01-13T06:12:02.587Z,103492.59
2023-01-13T06:14:40.539Z,103485.44
2023-01-13T06:17:16.431Z,103491.53
2023-01-13T06:19:47.824Z,103488.25
2023-01-13T06:22:22.523Z,103492.50
2023-01-13T06:24:55.704Z,103487.47
2023-01-13T06:27:27.714Z,103495.97
2023-01-13T06:30:02.153Z,103492.06
2023-01-13T06:32:40.005Z,103513.50
2023-01-13T06:35:15.932Z,103499.91
2023-01-13T06:37:53.572Z,103480.22
2023-01-13T06:40:22.407Z,103523.25
2023-01-13T06:43:14.383Z,103505.63
2023-01-13T06:45:55.704Z,103506.72
2023-01-13T06:48:36.104Z,103501.91
2023-01-13T06:51:07.854Z,103492.91
2023-01-13T06:53:35.911Z,103514.72
2023-01-13T06:56:04.171Z,103504.31
2023-01-13T06:58:32.589Z,103506.06
2023-01-13T07:01:01.431Z,103508.00
2023-01-13T07:03:29.884Z,103509.63
2023-01-13T07:05:59.549Z,103503.56
2023-01-13T07:08:28.509Z,103507.00
2023-01-13T07:10:56.102Z,103513.34
2023-01-13T07:13:42.200Z,103510.22
2023-01-13T07:16:10.696Z,103509.63
2023-01-13T07:18:40.012Z,103510.91
2023-01-13T07:21:14.251Z,103501.84
2023-01-13T07:23:43.429Z,103510.53
2023-01-13T07:27:01.836Z,103501.16
2023-01-13T07:29:33.998Z,103491.88
2023-01-13T07:32:07.666Z,103473.88
2023-01-13T07:34:58.248Z,103484.16
2023-01-13T07:37:29.729Z,103485.75
2023-01-13T07:43:08.237Z,103493.13
2023-01-13T07:45:36.288Z,103481.06
2023-01-13T07:48:05.104Z,103482.03
2023-01-13T07:50:35.363Z,103476.09
2023-01-13T07:53:32.536Z,103462.94
2023-01-13T07:56:03.150Z,103469.06
2023-01-13T07:58:31.465Z,103456.38
2023-01-13T08:00:59.390Z,103460.59
2023-01-13T08:03:29.061Z,103461.47
2023-01-13T08:05:57.235Z,103470.28
2023-01-13T08:08:27.939Z,103457.25
2023-01-13T08:11:00.238Z,103459.97
2023-01-13T08:13:28.542Z,103465.84
2023-01-13T08:16:02.956Z,103469.50
2023-01-13T08:18:32.731Z,103460.84
2023-01-13T08:21:06.335Z,103456.59
2023-01-13T08:23:36.534Z,103447.91
2023-01-13T08:26:18.747Z,103454.88
2023-01-13T08:29:24.589Z,103428.50
2023-01-13T08:32:01.174Z,103420.91
2023-01-13T08:38:26.488Z,103439.72
2023-01-13T08:41:14.066Z,103433.56
2023-01-13T08:43:42.157Z,103436.06
2023-01-13T08:46:10.087Z,103432.53
2023-01-13T08:48:39.659Z,103442.88
2023-01-13T08:53:53.401Z,103426.78
2023-01-13T08:56:23.512Z,103419.09
2023-01-13T08:59:11.105Z,103431.88
2023-01-13T09:01:46.310Z,103418.94
2023-01-13T09:04:23.770Z,103411.19
2023-01-13T09:06:52.282Z,103409.53
2023-01-13T09:09:21.889Z,103399.22
2023-01-13T09:12:11.232Z,103400.19
2023-01-13T09:14:45.267Z,103393.38
2023-01-13T09:17:15.539Z,103390.88
2023-01-13T09:19:47.670Z,103393.53
2023-01-13T09:22:20.368Z,103380.63
2023-01-13T09:24:49.428Z,103382.31
2023-01-13T09:27:20.536Z,103385.00
2023-01-13T09:29:54.608Z,103383.19
2023-01-13T09:32:25.851Z,103381.56
2023-01-13T09:35:02.977Z,103385.03
2023-01-13T09:37:37.902Z,103391.88
2023-01-13T09:40:11.806Z,103383.31
2023-01-13T09:43:02.294Z,103382.44
2023-01-13T09:45:38.013Z,103381.59
2023-01-13T09:48:05.964Z,103397.84
2023-01-13T09:50:51.523Z,103391.84
2023-01-13T09:53:30.516Z,103391.00
2023-01-13T09:55:58.776Z,103402.13
2023-01-13T09:58:27.442Z,103391.91
2023-01-13T10:01:00.882Z,103397.88
2023-01-13T10:03:30.730Z,103393.56
2023-01-13T10:06:16.295Z,103397.88
2023-01-13T10:08:47.688Z,103398.63
2023-01-13T10:15:04.136Z,103401.16
2023-01-13T10:17:52.998Z,103363.38
2023-01-13T10:20:34.472Z,103392.41
2023-01-13T10:23:24.009Z,103395.88
2023-01-13T10:26:01.536Z,103395.03
2023-01-13T10:31:15.934Z,103381.19
2023-01-13T10:33:46.793Z,103401.81
2023-01-13T10:36:23.473Z,103389.81
2023-01-13T10:38:52.013Z,103383.03
2023-01-13T10:41:25.596Z,103386.59
2023-01-13T10:43:53.486Z,103372.16
2023-01-13T10:46:21.636Z,103383.91
2023-01-13T10:48:56.366Z,103372.59
2023-01-13T10:51:28.495Z,103375.91
2023-01-13T10:54:00.883Z,103378.63
2023-01-13T10:56:33.819Z,103373.53
2023-01-13T10:59:20.544Z,103366.00
2023-01-13T11:02:13.051Z,103378.59
2023-01-13T11:04:54.540Z,103364.88
2023-01-13T11:07:31.432Z,103373.44
2023-01-13T11:10:28.841Z,103366.84
2023-01-13T11:13:21.789Z,103365.13
2023-01-13T11:15:55.646Z,103370.31
2023-01-13T11:18:40.822Z,103374.41
2023-01-13T11:21:31.892Z,103372.06
2023-01-13T11:24:21.619Z,103360.94
2023-01-13T11:27:03.710Z,103357.59
2023-01-13T11:32:27.334Z,103351.56
2023-01-13T11:34:56.926Z,103362.75
2023-01-13T11:37:26.625Z,103354.19
2023-01-13T11:40:21.027Z,103361.88
2023-01-13T11:43:33.491Z,103355.91
2023-01-13T11:46:11.612Z,103365.28
2023-01-13T11:48:42.856Z,103360.09
2023-01-13T11:51:37.087Z,103363.59
2023-01-13T11:54:27.635Z,103371.28
2023-01-13T11:56:58.676Z,103364.44
2023-01-13T11:59:41.979Z,103374.75
2023-01-13T12:02:45.496Z,103362.78
2023-01-13T12:06:01.880Z,103376.47
2023-01-13T12:09:05.125Z,103384.19
2023-01-13T12:12:14.685Z,103382.47
2023-01-13T12:14:45.413Z,103385.91
2023-01-13T12:17:32.217Z,103388.38
2023-01-13T12:20:15.455Z,103378.16
2023-01-13T12:22:47.171Z,103379.88
2023-01-13T12:25:28.329Z,103381.59
2023-01-13T12:28:16.819Z,103383.28
2023-01-13T12:31:00.783Z,103381.56
2023-01-13T12:33:49.951Z,103392.69
2023-01-13T12:36:23.664Z,103380.72
2023-01-13T12:39:20.651Z,103383.25
2023-01-13T12:42:17.474Z,103393.50
2023-01-13T12:45:08.350Z,103398.53
2023-01-13T12:47:44.623Z,103403.63
2023-01-13T12:50:24.441Z,103412.91
2023-01-13T12:52:58.131Z,103408.75
2023-01-13T12:55:27.124Z,103424.13
2023-01-13T12:57:58.417Z,103420.56
2023-01-13T13:00:49.117Z,103427.47
2023-01-13T13:03:37.570Z,103419.56
2023-01-13T13:06:18.841Z,103423.97
2023-01-13T13:09:05.738Z,103415.38
2023-01-13T13:11:59.977Z,103433.41
2023-01-13T13:14:39.595Z,103423.03
2023-01-13T13:17:29.641Z,103432.66
2023-01-13T13:20:01.797Z,103429.22
2023-01-13T13:22:44.983Z,103430.81
2023-01-13T13:25:25.329Z,103430.84
2023-01-13T13:28:13.278Z,103429.94
2023-01-13T13:30:50.706Z,103440.63
2023-01-13T13:33:38.452Z,103444.84
2023-01-13T13:36:14.428Z,103449.22
2023-01-13T13:39:21.860Z,103452.75
2023-01-13T13:42:14.899Z,103444.22
2023-01-13T13:45:06.706Z,103447.78
2023-01-13T13:47:42.171Z,103452.13
2023-01-13T13:50:21.266Z,103456.50
2023-01-13T13:52:59.668Z,103464.75
2023-01-13T13:55:38.433Z,103461.63
2023-01-13T13:58:17.711Z,103463.31
2023-01-13T14:00:48.771Z,103450.34
2023-01-13T14:03:25.229Z,103463.00
2023-01-13T14:05:56.244Z,103458.56
2023-01-13T14:08:25.170Z,103457.03
2023-01-13T14:10:53.443Z,103456.88
2023-01-13T14:16:15.667Z,103449.13
2023-01-13T14:18:48.502Z,103452.53
2023-01-13T14:21:27.946Z,103445.06
2023-01-13T14:24:11.486Z,103449.38
2023-01-13T14:26:40.024Z,103451.84
2023-01-13T14:29:07.756Z,103448.41
2023-01-13T14:31:36.305Z,103451.78
2023-01-13T14:34:31.221Z,103452.81
2023-01-13T14:36:54.458Z,103445.84
2023-01-13T14:39:27.084Z,103449.25
2023-01-13T14:41:54.991Z,103438.06
2023-01-13T14:44:29.151Z,103444.69
2023-01-13T14:46:59.215Z,103439.28
2023-01-13T14:49:33.040Z,103448.75
2023-01-13T14:52:19.742Z,103454.06
2023-01-13T14:54:47.953Z,103449.69
2023-01-13T14:57:28.010Z,103445.28
2023-01-13T14:59:58.088Z,103457.75
2023-01-13T15:02:25.828Z,103447.94
2023-01-13T15:04:54.891Z,103447.03
2023-01-13T15:07:29.740Z,103439.13
2023-01-13T15:10:00.726Z,103446.06
2023-01-13T15:12:41.136Z,103448.75
2023-01-13T15:15:26.183Z,103435.06
2023-01-13T15:17:53.765Z,103438.22
2023-01-13T15:20:23.784Z,103432.44
2023-01-13T15:22:52.681Z,103435.63
2023-01-13T15:28:08.237Z,103448.63
2023-01-13T15:30:35.646Z,103444.38
2023-01-13T15:33:03.120Z,103444.44
2023-01-13T15:35:30.711Z,103436.78
2023-01-13T15:40:54.750Z,103433.19
2023-01-13T15:43:42.974Z,103439.88
2023-01-13T15:46:31.410Z,103435.81
2023-01-13T15:49:02.389Z,103432.34
2023-01-13T15:51:29.853Z,103430.56
2023-01-13T15:54:00.823Z,103422.72
2023-01-13T15:59:24.582Z,103428.25
2023-01-13T16:01:52.332Z,103430.00
2023-01-13T16:04:19.767Z,103431.59
2023-01-13T16:06:47.818Z,103418.41
2023-01-13T16:09:17.051Z,103409.78
2023-01-13T16:11:44.545Z,103413.53
2023-01-13T16:14:12.028Z,103413.44
2023-01-13T16:16:39.733Z,103410.72
2023-01-13T16:19:07.194Z,103420.16
2023-01-13T16:21:34.814Z,103413.34
2023-01-13T16:24:02.277Z,103410.03
2023-01-13T16:26:30.519Z,103406.91
2023-01-13T16:28:58.652Z,103413.69
2023-01-13T16:31:33.207Z,103415.91
2023-01-13T16:34:02.214Z,103414.38
2023-01-13T16:36:32.213Z,103406.75
2023-01-13T16:38:59.611Z,103408.41
2023-01-13T16:41:28.094Z,103406.47
2023-01-13T16:43:55.783Z,103407.50
2023-01-13T16:49:17.470Z,103405.69
2023-01-13T16:51:44.790Z,103404.53
2023-01-13T16:54:12.526Z,103407.91
2023-01-13T16:59:30.204Z,103407.91
2023-01-13T17:01:57.883Z,103408.56
2023-01-13T17:04:25.420Z,103413.09
2023-01-13T17:07:03.309Z,103411.25
2023-01-13T17:09:31.370Z,103418.88
2023-01-13T17:11:59.296Z,103419.09
2023-01-13T17:14:26.954Z,103412.94
2023-01-13T17:16:57.338Z,103409.91
2023-01-13T17:19:25.886Z,103410.38
2023-01-13T17:21:53.323Z,103416.44
2023-01-13T17:27:03.725Z,103409.13
2023-01-13T17:29:33.141Z,103413.06
2023-01-13T17:32:01.430Z,103400.91
2023-01-13T17:34:28.962Z,103406.94
2023-01-13T17:36:57.062Z,103398.44
2023-01-13T17:39:26.715Z,103411.75
2023-01-13T17:41:56.246Z,103409.13
2023-01-13T17:44:23.961Z,103399.50
2023-01-13T17:46:51.798Z,103414.88
2023-01-13T17:49:21.536Z,103406.03
2023-01-13T17:51:51.434Z,103412.66
2023-01-13T17:54:19.204Z,103411.69
2023-01-13T17:56:46.866Z,103404.59
2023-01-13T17:59:16.523Z,103411.34
2023-01-13T18:01:44.458Z,103410.88
2023-01-13T18:04:22.929Z,103400.72
2023-01-13T18:06:50.995Z,103412.06
2023-01-13T18:09:18.480Z,103408.47
2023-01-13T18:11:47.362Z,103421.22
2023-01-13T18:14:15.321Z,103412.06
2023-01-13T18:16:43.396Z,103407.28
2023-01-13T18:19:29.659Z,103412.41
2023-01-13T18:22:15.435Z,103414.81
2023-01-13T18:25:01.438Z,103415.91
2023-01-13T18:27:36.688Z,103408.63
2023-01-13T18:30:05.130Z,103399.66
2023-01-13T18:32:33.801Z,103410.34
2023-01-13T18:35:06.724Z,103405.31
2023-01-13T18:37:36.347Z,103405.44
2023-01-13T18:40:05.571Z,103410.09
2023-01-13T18:42:51.456Z,103405.97
2023-01-13T18:45:27.956Z,103400.63
2023-01-13T18:47:57.958Z,103402.50
2023-01-13T18:50:26.280Z,103398.22
2023-01-13T18:52:54.156Z,103398.50
2023-01-13T18:55:21.917Z,103395.06
2023-01-13T18:57:50.555Z,103397.44
2023-01-13T19:00:20.405Z,103399.66
2023-01-13T19:02:48.894Z,103402.94
2023-01-13T19:05:16.707Z,103402.75
2023-01-13T19:07:51.287Z,103402.97
2023-01-13T19:10:19.246Z,103404.09
2023-01-13T19:12:46.857Z,103403.56
2023-01-13T19:15:14.388Z,103411.09
2023-01-13T19:17:41.871Z,103402.56
2023-01-13T19:20:11.579Z,103406.78
2023-01-13T19:22:39.301Z,103400.56
2023-01-13T19:25:07.053Z,103397.59
2023-01-13T19:27:34.503Z,103390.13
2023-01-13T19:30:02.354Z,103388.75
2023-01-13T19:32:33.862Z,103394.13
2023-01-13T19:35:01.335Z,103391.94
2023-01-13T19:37:30.642Z,103385.63
2023-01-13T19:39:59.624Z,103387.56
2023-01-13T19:42:46.587Z,103381.03
2023-01-13T19:45:26.656Z,103387.03
2023-01-13T19:47:55.221Z,103384.59
2023-01-13T19:50:22.782Z,103385.88
2023-01-13T19:52:50.234Z,103380.72
2023-01-13T19:55:17.754Z,103386.53
2023-01-13T19:57:45.493Z,103383.84
2023-01-13T20:00:15.457Z,103386.34
2023-01-13T20:02:49.862Z,103378.69
2023-01-13T20:05:21.545Z,103373.50
2023-01-13T20:07:50.765Z,103370.72
2023-01-13T20:10:20.637Z,103367.38
2023-01-13T20:12:48.306Z,103368.16
2023-01-13T20:15:16.295Z,103364.19
2023-01-13T20:17:43.814Z,103364.34
2023-01-13T20:20:12.194Z,103377.22
2023-01-13T20:22:40.184Z,103379.75
2023-01-13T20:25:08.967Z,103381.56
2023-01-13T20:27:36.908Z,103363.19
2023-01-13T20:30:05.961Z,103364.69
2023-01-13T20:32:33.384Z,103369.09
2023-01-13T20:35:00.927Z,103363.16
2023-01-13T20:37:28.645Z,103363.94
2023-01-13T20:39:58.307Z,103365.09
2023-01-13T20:42:45.193Z,103361.63
2023-01-13T20:45:17.446Z,103363.47
2023-01-13T20:47:45.825Z,103357.50
2023-01-13T20:50:14.555Z,103356.66
2023-01-13T20:52:42.715Z,103358.38
2023-01-13T20:55:10.539Z,103357.31
2023-01-13T20:57:38.072Z,103369.56
2023-01-13T21:00:06.276Z,103359.47
2023-01-13T21:02:34.267Z,103350.88
2023-01-13T21:05:01.718Z,103354.97
2023-01-13T21:07:30.401Z,103359.34
2023-01-13T21:09:58.040Z,103358.66
2023-01-13T21:12:44.195Z,103351.06
2023-01-13T21:15:20.357Z,103356.09
2023-01-13T21:18:09.187Z,103362.13
2023-01-13T21:20:38.075Z,103350.84
2023-01-13T21:23:05.815Z,103354.34
2023-01-13T21:25:35.507Z,103344.31
2023-01-13T21:28:11.879Z,103354.47
2023-01-13T21:30:39.899Z,103351.88
2023-01-13T21:33:07.435Z,103356.75
2023-01-13T21:35:38.673Z,103360.25
2023-01-13T21:38:06.145Z,103362.91
2023-01-13T21:40:33.749Z,103361.19
2023-01-13T21:43:19.544Z,103373.75
2023-01-13T21:46:05.706Z,103370.66
2023-01-13T21:48:33.292Z,103370.56
2023-01-13T21:51:01.662Z,103373.38
2023-01-13T21:53:29.397Z,103362.00
2023-01-13T21:55:56.873Z,103362.03
2023-01-13T21:58:24.649Z,103371.47
2023-01-13T22:00:52.102Z,103369.09
2023-01-13T22:03:19.821Z,103368.25
2023-01-13T22:05:54.813Z,103371.00
2023-01-13T22:08:22.654Z,103383.00
2023-01-13T22:10:58.250Z,103385.56
2023-01-13T22:16:49.481Z,103376.06
2023-01-13T22:19:18.517Z,103385.53
2023-01-13T22:21:47.116Z,103380.47
2023-01-13T22:24:18.617Z,103387.34
2023-01-13T22:26:46.006Z,103388.97
2023-01-13T22:29:13.499Z,103380.44
2023-01-13T22:31:40.916Z,103387.16
2023-01-13T22:34:08.440Z,103389.88
2023-01-13T22:36:35.819Z,103376.25
2023-01-13T22:39:03.505Z,103388.16
2023-01-13T22:41:30.980Z,103395.03
2023-01-13T22:43:58.956Z,103390.78
2023-01-13T22:46:26.491Z,103379.66
2023-01-13T22:51:43.565Z,103397.38
2023-01-13T22:54:11.468Z,103384.53
2023-01-13T22:56:39.840Z,103394.03
2023-01-13T22:59:11.108Z,103384.53
2023-01-13T23:01:39.356Z,103391.59
2023-01-13T23:04:10.201Z,103394.09
2023-01-13T23:06:37.870Z,103393.94
2023-01-13T23:09:06.149Z,103383.78
2023-01-13T23:11:33.731Z,103394.16
2023-01-13T23:14:06.609Z,103378.50
2023-01-13T23:16:37.202Z,103381.91
2023-01-13T23:19:05.696Z,103383.81
2023-01-13T23:21:36.495Z,103385.59
2023-01-13T23:24:05.542Z,103390.53
2023-01-13T23:26:34.473Z,103385.50
2023-01-13T23:29:13.346Z,103386.19
2023-01-13T23:34:23.372Z,103392.06
2023-01-13T23:36:50.786Z,103388.53
2023-01-13T23:39:18.403Z,103389.66
2023-01-13T23:41:45.780Z,103382.84
2023-01-13T23:44:13.262Z,103389.63
2023-01-13T23:46:40.797Z,103386.88
2023-01-13T23:49:08.511Z,103382.75
2023-01-13T23:51:36.089Z,103383.38
2023-01-13T23:54:03.610Z,103377.66
2023-01-13T23:56:53.862Z,103377.66
2023-01-13T23:59:21.623Z,103382.63
